sensor_id;sensor_type;location;lat;lon;timestamp;P1;durP1;ratioP1;P2;durP2;ratioP2
36377;SDS011;22402;42.746;23.606;2024-01-27T00:02:18;14.17;;;4.97;;
36377;SDS011;22402;42.746;23.606;2024-01-27T00:04:43;17.83;;;5.50;;
36377;SDS011;22402;42.746;23.606;2024-01-27T00:07:09;16.33;;;4.87;;
36377;SDS011;22402;42.746;23.606;2024-01-27T00:09:34;16.60;;;5.20;;
36377;SDS011;22402;42.746;23.606;2024-01-27T00:12:00;15.50;;;5.10;;
36377;SDS011;22402;42.746;23.606;2024-01-27T00:14:25;17.17;;;5.83;;
36377;SDS011;22402;42.746;23.606;2024-01-27T00:16:51;20.87;;;7.10;;
36377;SDS011;22402;42.746;23.606;2024-01-27T00:19:17;19.30;;;6.53;;
36377;SDS011;22402;42.746;23.606;2024-01-27T00:21:42;15.97;;;5.33;;
36377;SDS011;22402;42.746;23.606;2024-01-27T00:24:08;16.60;;;5.87;;
36377;SDS011;22402;42.746;23.606;2024-01-27T00:26:33;18.90;;;5.23;;
36377;SDS011;22402;42.746;23.606;2024-01-27T00:28:58;10.63;;;4.30;;
36377;SDS011;22402;42.746;23.606;2024-01-27T00:31:24;19.47;;;5.80;;
36377;SDS011;22402;42.746;23.606;2024-01-27T00:33:50;16.57;;;5.60;;
36377;SDS011;22402;42.746;23.606;2024-01-27T00:36:15;13.20;;;4.97;;
36377;SDS011;22402;42.746;23.606;2024-01-27T00:38:40;14.00;;;5.70;;
36377;SDS011;22402;42.746;23.606;2024-01-27T00:41:06;15.20;;;4.87;;
36377;SDS011;22402;42.746;23.606;2024-01-27T00:43:31;25.57;;;5.83;;
36377;SDS011;22402;42.746;23.606;2024-01-27T00:45:57;18.23;;;5.70;;
36377;SDS011;22402;42.746;23.606;2024-01-27T00:48:22;17.03;;;5.27;;
36377;SDS011;22402;42.746;23.606;2024-01-27T00:50:48;24.13;;;7.00;;
36377;SDS011;22402;42.746;23.606;2024-01-27T00:53:13;19.20;;;5.67;;
36377;SDS011;22402;42.746;23.606;2024-01-27T00:55:39;13.30;;;5.00;;
36377;SDS011;22402;42.746;23.606;2024-01-27T00:58:04;19.30;;;6.40;;
36377;SDS011;22402;42.746;23.606;2024-01-27T01:00:30;14.27;;;4.70;;
36377;SDS011;22402;42.746;23.606;2024-01-27T01:02:55;22.00;;;5.30;;
36377;SDS011;22402;42.746;23.606;2024-01-27T01:05:20;14.40;;;4.63;;
36377;SDS011;22402;42.746;23.606;2024-01-27T01:07:46;13.17;;;5.40;;
36377;SDS011;22402;42.746;23.606;2024-01-27T01:10:12;16.80;;;5.80;;
36377;SDS011;22402;42.746;23.606;2024-01-27T01:12:37;15.17;;;5.60;;
36377;SDS011;22402;42.746;23.606;2024-01-27T01:15:03;17.67;;;4.70;;
36377;SDS011;22402;42.746;23.606;2024-01-27T01:17:29;12.13;;;5.87;;
36377;SDS011;22402;42.746;23.606;2024-01-27T01:19:54;14.53;;;4.60;;
36377;SDS011;22402;42.746;23.606;2024-01-27T01:22:20;18.77;;;6.57;;
36377;SDS011;22402;42.746;23.606;2024-01-27T01:24:45;18.00;;;6.30;;
36377;SDS011;22402;42.746;23.606;2024-01-27T01:27:11;14.30;;;5.00;;
36377;SDS011;22402;42.746;23.606;2024-01-27T01:29:36;22.10;;;6.67;;
36377;SDS011;22402;42.746;23.606;2024-01-27T01:32:02;16.50;;;6.00;;
36377;SDS011;22402;42.746;23.606;2024-01-27T01:34:28;17.83;;;5.43;;
36377;SDS011;22402;42.746;23.606;2024-01-27T01:36:53;15.57;;;4.77;;
36377;SDS011;22402;42.746;23.606;2024-01-27T01:39:19;12.80;;;5.73;;
36377;SDS011;22402;42.746;23.606;2024-01-27T01:41:45;19.40;;;6.80;;
36377;SDS011;22402;42.746;23.606;2024-01-27T01:44:10;15.67;;;5.07;;
36377;SDS011;22402;42.746;23.606;2024-01-27T01:46:36;14.10;;;6.00;;
36377;SDS011;22402;42.746;23.606;2024-01-27T01:49:01;20.30;;;5.97;;
36377;SDS011;22402;42.746;23.606;2024-01-27T01:51:28;14.20;;;6.03;;
36377;SDS011;22402;42.746;23.606;2024-01-27T01:53:54;18.17;;;6.17;;
36377;SDS011;22402;42.746;23.606;2024-01-27T01:56:23;13.77;;;4.87;;
36377;SDS011;22402;42.746;23.606;2024-01-27T01:58:49;18.23;;;5.90;;
36377;SDS011;22402;42.746;23.606;2024-01-27T02:01:15;13.20;;;5.07;;
36377;SDS011;22402;42.746;23.606;2024-01-27T02:03:51;17.50;;;6.43;;
36377;SDS011;22402;42.746;23.606;2024-01-27T02:06:19;15.00;;;6.87;;
36377;SDS011;22402;42.746;23.606;2024-01-27T02:08:44;15.47;;;6.70;;
36377;SDS011;22402;42.746;23.606;2024-01-27T02:11:10;17.57;;;6.73;;
36377;SDS011;22402;42.746;23.606;2024-01-27T02:13:35;15.57;;;6.63;;
36377;SDS011;22402;42.746;23.606;2024-01-27T02:16:01;15.57;;;6.03;;
36377;SDS011;22402;42.746;23.606;2024-01-27T02:18:26;17.87;;;6.40;;
36377;SDS011;22402;42.746;23.606;2024-01-27T02:20:52;21.77;;;6.90;;
36377;SDS011;22402;42.746;23.606;2024-01-27T02:23:17;27.80;;;7.20;;
36377;SDS011;22402;42.746;23.606;2024-01-27T02:25:43;19.20;;;7.27;;
36377;SDS011;22402;42.746;23.606;2024-01-27T02:28:08;24.53;;;7.13;;
36377;SDS011;22402;42.746;23.606;2024-01-27T02:30:34;16.37;;;6.50;;
36377;SDS011;22402;42.746;23.606;2024-01-27T02:33:00;20.40;;;6.37;;
36377;SDS011;22402;42.746;23.606;2024-01-27T02:35:27;10.80;;;5.00;;
36377;SDS011;22402;42.746;23.606;2024-01-27T02:37:52;16.47;;;5.60;;
36377;SDS011;22402;42.746;23.606;2024-01-27T02:40:18;22.57;;;6.20;;
36377;SDS011;22402;42.746;23.606;2024-01-27T02:42:43;15.73;;;6.00;;
36377;SDS011;22402;42.746;23.606;2024-01-27T02:45:09;15.07;;;5.70;;
36377;SDS011;22402;42.746;23.606;2024-01-27T02:47:36;17.07;;;6.40;;
36377;SDS011;22402;42.746;23.606;2024-01-27T02:50:02;16.23;;;6.70;;
36377;SDS011;22402;42.746;23.606;2024-01-27T02:52:27;16.53;;;6.23;;
36377;SDS011;22402;42.746;23.606;2024-01-27T02:54:53;14.20;;;6.00;;
36377;SDS011;22402;42.746;23.606;2024-01-27T02:57:19;20.00;;;6.50;;
36377;SDS011;22402;42.746;23.606;2024-01-27T02:59:48;16.63;;;6.77;;
36377;SDS011;22402;42.746;23.606;2024-01-27T03:02:13;17.67;;;5.90;;
36377;SDS011;22402;42.746;23.606;2024-01-27T03:04:39;16.17;;;6.17;;
36377;SDS011;22402;42.746;23.606;2024-01-27T03:07:04;20.07;;;6.27;;
36377;SDS011;22402;42.746;23.606;2024-01-27T03:09:30;15.67;;;5.93;;
36377;SDS011;22402;42.746;23.606;2024-01-27T03:11:57;24.73;;;6.17;;
36377;SDS011;22402;42.746;23.606;2024-01-27T03:14:22;12.60;;;5.23;;
36377;SDS011;22402;42.746;23.606;2024-01-27T03:16:48;14.30;;;6.17;;
36377;SDS011;22402;42.746;23.606;2024-01-27T03:19:13;17.67;;;6.43;;
36377;SDS011;22402;42.746;23.606;2024-01-27T03:21:39;17.27;;;7.20;;
36377;SDS011;22402;42.746;23.606;2024-01-27T03:24:05;14.67;;;6.20;;
36377;SDS011;22402;42.746;23.606;2024-01-27T03:26:30;15.20;;;6.20;;
36377;SDS011;22402;42.746;23.606;2024-01-27T03:28:56;17.97;;;6.57;;
36377;SDS011;22402;42.746;23.606;2024-01-27T03:31:22;18.17;;;6.30;;
36377;SDS011;22402;42.746;23.606;2024-01-27T03:33:48;15.47;;;5.43;;
36377;SDS011;22402;42.746;23.606;2024-01-27T03:36:14;17.97;;;6.17;;
36377;SDS011;22402;42.746;23.606;2024-01-27T03:38:40;17.50;;;6.50;;
36377;SDS011;22402;42.746;23.606;2024-01-27T03:41:06;20.23;;;6.73;;
36377;SDS011;22402;42.746;23.606;2024-01-27T03:43:35;18.73;;;7.00;;
36377;SDS011;22402;42.746;23.606;2024-01-27T03:46:01;17.87;;;6.77;;
36377;SDS011;22402;42.746;23.606;2024-01-27T03:48:28;38.60;;;11.93;;
36377;SDS011;22402;42.746;23.606;2024-01-27T03:50:53;18.67;;;6.90;;
36377;SDS011;22402;42.746;23.606;2024-01-27T03:53:19;19.20;;;6.90;;
36377;SDS011;22402;42.746;23.606;2024-01-27T03:55:44;19.97;;;6.50;;
36377;SDS011;22402;42.746;23.606;2024-01-27T03:58:10;18.13;;;6.20;;
36377;SDS011;22402;42.746;23.606;2024-01-27T04:00:36;19.97;;;6.93;;
36377;SDS011;22402;42.746;23.606;2024-01-27T04:03:02;23.30;;;6.77;;
36377;SDS011;22402;42.746;23.606;2024-01-27T04:05:30;18.50;;;5.60;;
36377;SDS011;22402;42.746;23.606;2024-01-27T04:07:56;25.10;;;8.23;;
36377;SDS011;22402;42.746;23.606;2024-01-27T04:10:22;20.23;;;6.80;;
36377;SDS011;22402;42.746;23.606;2024-01-27T04:12:48;27.00;;;8.83;;
36377;SDS011;22402;42.746;23.606;2024-01-27T04:15:14;19.57;;;7.37;;
36377;SDS011;22402;42.746;23.606;2024-01-27T04:17:40;20.13;;;7.63;;
36377;SDS011;22402;42.746;23.606;2024-01-27T04:20:07;17.70;;;6.33;;
36377;SDS011;22402;42.746;23.606;2024-01-27T04:22:33;18.17;;;7.00;;
36377;SDS011;22402;42.746;23.606;2024-01-27T04:24:59;19.53;;;7.33;;
36377;SDS011;22402;42.746;23.606;2024-01-27T04:27:26;21.37;;;7.20;;
36377;SDS011;22402;42.746;23.606;2024-01-27T04:29:52;22.20;;;8.03;;
36377;SDS011;22402;42.746;23.606;2024-01-27T04:32:17;30.90;;;8.57;;
36377;SDS011;22402;42.746;23.606;2024-01-27T04:34:43;17.33;;;8.37;;
36377;SDS011;22402;42.746;23.606;2024-01-27T04:37:08;15.80;;;7.30;;
36377;SDS011;22402;42.746;23.606;2024-01-27T04:39:34;15.17;;;7.20;;
36377;SDS011;22402;42.746;23.606;2024-01-27T04:41:59;19.20;;;7.40;;
36377;SDS011;22402;42.746;23.606;2024-01-27T04:44:25;17.30;;;7.77;;
36377;SDS011;22402;42.746;23.606;2024-01-27T04:46:51;17.63;;;7.63;;
36377;SDS011;22402;42.746;23.606;2024-01-27T04:49:16;13.70;;;6.10;;
36377;SDS011;22402;42.746;23.606;2024-01-27T04:51:42;12.60;;;6.13;;
36377;SDS011;22402;42.746;23.606;2024-01-27T04:54:08;15.53;;;6.90;;
36377;SDS011;22402;42.746;23.606;2024-01-27T04:56:34;14.67;;;6.47;;
36377;SDS011;22402;42.746;23.606;2024-01-27T04:58:59;16.10;;;7.17;;
36377;SDS011;22402;42.746;23.606;2024-01-27T05:01:24;15.23;;;7.00;;
36377;SDS011;22402;42.746;23.606;2024-01-27T05:03:50;18.97;;;6.90;;
36377;SDS011;22402;42.746;23.606;2024-01-27T05:06:15;20.30;;;7.43;;
36377;SDS011;22402;42.746;23.606;2024-01-27T05:08:42;22.93;;;7.87;;
36377;SDS011;22402;42.746;23.606;2024-01-27T05:11:07;20.40;;;8.13;;
36377;SDS011;22402;42.746;23.606;2024-01-27T05:13:33;16.17;;;6.80;;
36377;SDS011;22402;42.746;23.606;2024-01-27T05:15:58;16.30;;;5.93;;
36377;SDS011;22402;42.746;23.606;2024-01-27T05:18:24;16.23;;;7.30;;
36377;SDS011;22402;42.746;23.606;2024-01-27T05:20:49;13.40;;;5.87;;
36377;SDS011;22402;42.746;23.606;2024-01-27T05:23:15;11.27;;;5.83;;
36377;SDS011;22402;42.746;23.606;2024-01-27T05:25:40;14.87;;;7.03;;
36377;SDS011;22402;42.746;23.606;2024-01-27T05:28:06;16.13;;;6.90;;
36377;SDS011;22402;42.746;23.606;2024-01-27T05:33:07;22.00;;;9.00;;
36377;SDS011;22402;42.746;23.606;2024-01-27T05:35:33;16.37;;;6.03;;
36377;SDS011;22402;42.746;23.606;2024-01-27T05:37:58;11.77;;;5.70;;
36377;SDS011;22402;42.746;23.606;2024-01-27T05:40:27;20.80;;;8.30;;
36377;SDS011;22402;42.746;23.606;2024-01-27T05:42:52;17.50;;;7.30;;
36377;SDS011;22402;42.746;23.606;2024-01-27T05:45:19;16.73;;;7.23;;
36377;SDS011;22402;42.746;23.606;2024-01-27T05:47:44;15.00;;;6.60;;
36377;SDS011;22402;42.746;23.606;2024-01-27T05:50:11;21.93;;;7.77;;
36377;SDS011;22402;42.746;23.606;2024-01-27T05:52:36;13.10;;;5.93;;
36377;SDS011;22402;42.746;23.606;2024-01-27T05:55:02;12.17;;;6.53;;
36377;SDS011;22402;42.746;23.606;2024-01-27T05:57:28;15.27;;;6.47;;
36377;SDS011;22402;42.746;23.606;2024-01-27T05:59:54;8.77;;;5.23;;
36377;SDS011;22402;42.746;23.606;2024-01-27T06:02:22;13.73;;;6.70;;
36377;SDS011;22402;42.746;23.606;2024-01-27T06:04:49;15.53;;;5.70;;
36377;SDS011;22402;42.746;23.606;2024-01-27T06:07:14;11.37;;;6.20;;
36377;SDS011;22402;42.746;23.606;2024-01-27T06:09:40;9.57;;;5.23;;
36377;SDS011;22402;42.746;23.606;2024-01-27T06:12:06;8.90;;;4.63;;
36377;SDS011;22402;42.746;23.606;2024-01-27T06:14:32;17.20;;;6.83;;
36377;SDS011;22402;42.746;23.606;2024-01-27T06:16:57;11.60;;;5.30;;
36377;SDS011;22402;42.746;23.606;2024-01-27T06:19:23;18.27;;;6.57;;
36377;SDS011;22402;42.746;23.606;2024-01-27T06:21:48;11.00;;;5.07;;
36377;SDS011;22402;42.746;23.606;2024-01-27T06:24:14;16.40;;;5.63;;
36377;SDS011;22402;42.746;23.606;2024-01-27T06:26:40;15.60;;;6.70;;
36377;SDS011;22402;42.746;23.606;2024-01-27T06:29:05;14.43;;;6.13;;
36377;SDS011;22402;42.746;23.606;2024-01-27T06:31:31;10.60;;;5.23;;
36377;SDS011;22402;42.746;23.606;2024-01-27T06:33:56;14.90;;;7.20;;
36377;SDS011;22402;42.746;23.606;2024-01-27T06:36:22;17.03;;;7.40;;
36377;SDS011;22402;42.746;23.606;2024-01-27T06:38:50;16.57;;;7.93;;
36377;SDS011;22402;42.746;23.606;2024-01-27T06:41:16;20.13;;;8.10;;
36377;SDS011;22402;42.746;23.606;2024-01-27T06:43:42;16.60;;;7.70;;
36377;SDS011;22402;42.746;23.606;2024-01-27T06:46:07;16.80;;;7.50;;
36377;SDS011;22402;42.746;23.606;2024-01-27T06:48:33;15.83;;;6.93;;
36377;SDS011;22402;42.746;23.606;2024-01-27T06:50:58;20.83;;;7.60;;
36377;SDS011;22402;42.746;23.606;2024-01-27T06:53:24;15.00;;;6.70;;
36377;SDS011;22402;42.746;23.606;2024-01-27T06:55:49;15.90;;;6.90;;
36377;SDS011;22402;42.746;23.606;2024-01-27T06:58:15;21.13;;;7.77;;
36377;SDS011;22402;42.746;23.606;2024-01-27T07:00:40;13.00;;;5.20;;
36377;SDS011;22402;42.746;23.606;2024-01-27T07:03:06;13.30;;;6.00;;
36377;SDS011;22402;42.746;23.606;2024-01-27T07:05:31;17.37;;;5.70;;
36377;SDS011;22402;42.746;23.606;2024-01-27T07:07:59;14.23;;;5.37;;
36377;SDS011;22402;42.746;23.606;2024-01-27T07:10:28;15.30;;;6.13;;
36377;SDS011;22402;42.746;23.606;2024-01-27T07:12:53;18.07;;;7.07;;
36377;SDS011;22402;42.746;23.606;2024-01-27T07:15:22;16.90;;;7.47;;
36377;SDS011;22402;42.746;23.606;2024-01-27T07:17:51;12.37;;;6.70;;
36377;SDS011;22402;42.746;23.606;2024-01-27T07:20:17;15.13;;;6.80;;
36377;SDS011;22402;42.746;23.606;2024-01-27T07:22:42;14.80;;;6.77;;
36377;SDS011;22402;42.746;23.606;2024-01-27T07:25:08;24.13;;;8.80;;
36377;SDS011;22402;42.746;23.606;2024-01-27T07:27:35;12.57;;;6.33;;
36377;SDS011;22402;42.746;23.606;2024-01-27T07:30:01;12.70;;;5.53;;
36377;SDS011;22402;42.746;23.606;2024-01-27T07:32:28;23.67;;;7.10;;
36377;SDS011;22402;42.746;23.606;2024-01-27T07:34:54;20.07;;;6.70;;
36377;SDS011;22402;42.746;23.606;2024-01-27T07:37:19;14.80;;;6.50;;
36377;SDS011;22402;42.746;23.606;2024-01-27T07:39:46;22.80;;;7.97;;
36377;SDS011;22402;42.746;23.606;2024-01-27T07:42:11;17.30;;;7.20;;
36377;SDS011;22402;42.746;23.606;2024-01-27T07:44:40;17.07;;;7.40;;
36377;SDS011;22402;42.746;23.606;2024-01-27T07:47:06;17.20;;;7.60;;
36377;SDS011;22402;42.746;23.606;2024-01-27T07:49:31;24.27;;;7.43;;
36377;SDS011;22402;42.746;23.606;2024-01-27T07:51:56;12.57;;;6.00;;
36377;SDS011;22402;42.746;23.606;2024-01-27T07:54:22;17.93;;;7.43;;
36377;SDS011;22402;42.746;23.606;2024-01-27T07:56:48;11.30;;;5.40;;
36377;SDS011;22402;42.746;23.606;2024-01-27T07:59:14;12.50;;;6.23;;
36377;SDS011;22402;42.746;23.606;2024-01-27T08:01:40;16.60;;;6.97;;
36377;SDS011;22402;42.746;23.606;2024-01-27T08:04:06;11.10;;;5.80;;
36377;SDS011;22402;42.746;23.606;2024-01-27T08:06:32;14.90;;;7.33;;
36377;SDS011;22402;42.746;23.606;2024-01-27T08:08:57;12.70;;;6.63;;
36377;SDS011;22402;42.746;23.606;2024-01-27T08:11:24;14.83;;;7.43;;
36377;SDS011;22402;42.746;23.606;2024-01-27T08:13:49;16.47;;;7.17;;
36377;SDS011;22402;42.746;23.606;2024-01-27T08:16:15;11.03;;;6.23;;
36377;SDS011;22402;42.746;23.606;2024-01-27T08:18:40;11.10;;;5.77;;
36377;SDS011;22402;42.746;23.606;2024-01-27T08:21:10;14.13;;;6.90;;
36377;SDS011;22402;42.746;23.606;2024-01-27T08:23:38;15.23;;;7.47;;
36377;SDS011;22402;42.746;23.606;2024-01-27T08:26:04;11.90;;;6.30;;
36377;SDS011;22402;42.746;23.606;2024-01-27T08:28:30;13.77;;;7.13;;
36377;SDS011;22402;42.746;23.606;2024-01-27T08:30:55;14.17;;;7.00;;
36377;SDS011;22402;42.746;23.606;2024-01-27T08:33:21;18.20;;;8.53;;
36377;SDS011;22402;42.746;23.606;2024-01-27T08:35:47;19.87;;;8.67;;
36377;SDS011;22402;42.746;23.606;2024-01-27T08:38:15;20.03;;;9.27;;
36377;SDS011;22402;42.746;23.606;2024-01-27T08:40:41;17.30;;;8.83;;
36377;SDS011;22402;42.746;23.606;2024-01-27T08:43:06;20.43;;;8.13;;
36377;SDS011;22402;42.746;23.606;2024-01-27T08:45:32;14.77;;;8.43;;
36377;SDS011;22402;42.746;23.606;2024-01-27T08:47:58;17.53;;;8.70;;
36377;SDS011;22402;42.746;23.606;2024-01-27T08:50:24;21.00;;;9.97;;
36377;SDS011;22402;42.746;23.606;2024-01-27T08:52:49;14.30;;;8.23;;
36377;SDS011;22402;42.746;23.606;2024-01-27T08:55:15;15.77;;;7.60;;
36377;SDS011;22402;42.746;23.606;2024-01-27T08:57:43;16.77;;;8.60;;
36377;SDS011;22402;42.746;23.606;2024-01-27T09:00:09;15.10;;;8.00;;
36377;SDS011;22402;42.746;23.606;2024-01-27T09:02:36;16.50;;;7.27;;
36377;SDS011;22402;42.746;23.606;2024-01-27T09:05:01;15.00;;;7.43;;
36377;SDS011;22402;42.746;23.606;2024-01-27T09:07:28;17.83;;;7.60;;
36377;SDS011;22402;42.746;23.606;2024-01-27T09:09:53;12.23;;;5.83;;
36377;SDS011;22402;42.746;23.606;2024-01-27T09:12:19;13.23;;;7.23;;
36377;SDS011;22402;42.746;23.606;2024-01-27T09:14:46;14.30;;;7.00;;
36377;SDS011;22402;42.746;23.606;2024-01-27T09:17:12;11.97;;;6.70;;
36377;SDS011;22402;42.746;23.606;2024-01-27T09:19:38;13.50;;;7.20;;
36377;SDS011;22402;42.746;23.606;2024-01-27T09:22:03;11.70;;;6.57;;
36377;SDS011;22402;42.746;23.606;2024-01-27T09:24:29;11.83;;;6.00;;
36377;SDS011;22402;42.746;23.606;2024-01-27T09:26:54;12.70;;;6.50;;
36377;SDS011;22402;42.746;23.606;2024-01-27T09:29:20;12.30;;;6.40;;
36377;SDS011;22402;42.746;23.606;2024-01-27T09:31:45;15.00;;;7.20;;
36377;SDS011;22402;42.746;23.606;2024-01-27T09:34:11;20.87;;;8.33;;
36377;SDS011;22402;42.746;23.606;2024-01-27T09:36:37;21.30;;;8.93;;
36377;SDS011;22402;42.746;23.606;2024-01-27T09:39:02;18.63;;;7.90;;
36377;SDS011;22402;42.746;23.606;2024-01-27T09:41:30;17.60;;;7.80;;
36377;SDS011;22402;42.746;23.606;2024-01-27T09:43:58;12.93;;;6.60;;
36377;SDS011;22402;42.746;23.606;2024-01-27T09:46:26;12.43;;;6.17;;
36377;SDS011;22402;42.746;23.606;2024-01-27T09:48:52;12.20;;;5.10;;
36377;SDS011;22402;42.746;23.606;2024-01-27T09:51:18;12.10;;;4.60;;
36377;SDS011;22402;42.746;23.606;2024-01-27T09:53:44;16.93;;;6.00;;
36377;SDS011;22402;42.746;23.606;2024-01-27T09:56:10;8.47;;;3.60;;
36377;SDS011;22402;42.746;23.606;2024-01-27T09:58:43;11.40;;;4.70;;
36377;SDS011;22402;42.746;23.606;2024-01-27T10:01:15;13.83;;;4.70;;
36377;SDS011;22402;42.746;23.606;2024-01-27T10:03:46;13.17;;;4.83;;
36377;SDS011;22402;42.746;23.606;2024-01-27T10:06:12;12.53;;;4.93;;
36377;SDS011;22402;42.746;23.606;2024-01-27T10:08:39;12.97;;;5.40;;
36377;SDS011;22402;42.746;23.606;2024-01-27T10:11:09;10.23;;;4.90;;
36377;SDS011;22402;42.746;23.606;2024-01-27T10:13:38;12.63;;;5.63;;
36377;SDS011;22402;42.746;23.606;2024-01-27T10:16:07;16.43;;;6.40;;
36377;SDS011;22402;42.746;23.606;2024-01-27T10:18:34;15.93;;;5.90;;
36377;SDS011;22402;42.746;23.606;2024-01-27T10:20:59;12.37;;;5.10;;
36377;SDS011;22402;42.746;23.606;2024-01-27T10:23:25;13.97;;;5.97;;
36377;SDS011;22402;42.746;23.606;2024-01-27T10:25:52;12.07;;;5.13;;
36377;SDS011;22402;42.746;23.606;2024-01-27T10:28:17;10.80;;;4.83;;
36377;SDS011;22402;42.746;23.606;2024-01-27T10:30:43;14.13;;;5.40;;
36377;SDS011;22402;42.746;23.606;2024-01-27T10:33:10;14.83;;;5.53;;
36377;SDS011;22402;42.746;23.606;2024-01-27T10:35:37;14.50;;;5.50;;
36377;SDS011;22402;42.746;23.606;2024-01-27T10:38:03;16.20;;;5.57;;
36377;SDS011;22402;42.746;23.606;2024-01-27T10:40:28;12.80;;;5.27;;
36377;SDS011;22402;42.746;23.606;2024-01-27T10:45:54;14.57;;;5.90;;
36377;SDS011;22402;42.746;23.606;2024-01-27T10:48:19;15.80;;;6.03;;
36377;SDS011;22402;42.746;23.606;2024-01-27T10:50:46;15.90;;;5.97;;
36377;SDS011;22402;42.746;23.606;2024-01-27T10:53:21;11.63;;;4.47;;
36377;SDS011;22402;42.746;23.606;2024-01-27T10:55:53;10.57;;;4.47;;
36377;SDS011;22402;42.746;23.606;2024-01-27T10:58:21;15.90;;;5.60;;
36377;SDS011;22402;42.746;23.606;2024-01-27T11:00:48;14.60;;;4.73;;
36377;SDS011;22402;42.746;23.606;2024-01-27T11:03:15;11.43;;;4.80;;
36377;SDS011;22402;42.746;23.606;2024-01-27T11:05:46;15.43;;;4.77;;
36377;SDS011;22402;42.746;23.606;2024-01-27T11:08:12;10.27;;;4.40;;
36377;SDS011;22402;42.746;23.606;2024-01-27T11:10:39;10.10;;;4.13;;
36377;SDS011;22402;42.746;23.606;2024-01-27T11:13:05;11.57;;;4.27;;
36377;SDS011;22402;42.746;23.606;2024-01-27T11:15:33;10.00;;;4.00;;
36377;SDS011;22402;42.746;23.606;2024-01-27T11:17:58;12.23;;;4.77;;
36377;SDS011;22402;42.746;23.606;2024-01-27T11:20:25;9.63;;;4.10;;
36377;SDS011;22402;42.746;23.606;2024-01-27T11:22:51;13.30;;;4.27;;
36377;SDS011;22402;42.746;23.606;2024-01-27T11:25:17;7.33;;;3.57;;
36377;SDS011;22402;42.746;23.606;2024-01-27T11:27:44;13.60;;;4.70;;
36377;SDS011;22402;42.746;23.606;2024-01-27T11:30:33;11.23;;;4.10;;
36377;SDS011;22402;42.746;23.606;2024-01-27T11:33:03;8.33;;;3.70;;
36377;SDS011;22402;42.746;23.606;2024-01-27T11:35:31;9.97;;;4.13;;
36377;SDS011;22402;42.746;23.606;2024-01-27T11:37:57;12.07;;;4.50;;
36377;SDS011;22402;42.746;23.606;2024-01-27T11:40:22;11.93;;;3.90;;
36377;SDS011;22402;42.746;23.606;2024-01-27T11:42:57;11.00;;;3.93;;
36377;SDS011;22402;42.746;23.606;2024-01-27T11:45:24;11.27;;;4.30;;
36377;SDS011;22402;42.746;23.606;2024-01-27T11:47:50;14.27;;;4.57;;
36377;SDS011;22402;42.746;23.606;2024-01-27T11:50:19;15.50;;;5.10;;
36377;SDS011;22402;42.746;23.606;2024-01-27T11:52:45;10.20;;;4.03;;
36377;SDS011;22402;42.746;23.606;2024-01-27T11:55:12;10.90;;;4.70;;
36377;SDS011;22402;42.746;23.606;2024-01-27T11:57:40;11.50;;;4.40;;
36377;SDS011;22402;42.746;23.606;2024-01-27T12:00:10;10.67;;;4.30;;
36377;SDS011;22402;42.746;23.606;2024-01-27T12:02:37;6.97;;;3.80;;
36377;SDS011;22402;42.746;23.606;2024-01-27T12:05:07;12.50;;;4.40;;
36377;SDS011;22402;42.746;23.606;2024-01-27T12:07:34;16.80;;;5.20;;
36377;SDS011;22402;42.746;23.606;2024-01-27T12:09:59;11.80;;;4.70;;
36377;SDS011;22402;42.746;23.606;2024-01-27T12:12:25;11.53;;;4.67;;
36377;SDS011;22402;42.746;23.606;2024-01-27T12:14:51;15.73;;;4.97;;
36377;SDS011;22402;42.746;23.606;2024-01-27T12:17:18;12.03;;;4.53;;
36377;SDS011;22402;42.746;23.606;2024-01-27T12:19:47;12.60;;;4.93;;
36377;SDS011;22402;42.746;23.606;2024-01-27T12:22:22;12.10;;;5.17;;
36377;SDS011;22402;42.746;23.606;2024-01-27T12:24:53;7.53;;;3.80;;
36377;SDS011;22402;42.746;23.606;2024-01-27T12:27:19;6.30;;;3.43;;
36377;SDS011;22402;42.746;23.606;2024-01-27T12:29:47;13.03;;;4.57;;
36377;SDS011;22402;42.746;23.606;2024-01-27T12:32:14;8.53;;;3.70;;
36377;SDS011;22402;42.746;23.606;2024-01-27T12:34:41;10.87;;;4.20;;
36377;SDS011;22402;42.746;23.606;2024-01-27T12:37:07;10.00;;;4.53;;
36377;SDS011;22402;42.746;23.606;2024-01-27T12:39:44;11.37;;;4.40;;
36377;SDS011;22402;42.746;23.606;2024-01-27T12:42:14;7.83;;;3.97;;
36377;SDS011;22402;42.746;23.606;2024-01-27T12:44:43;9.73;;;4.90;;
36377;SDS011;22402;42.746;23.606;2024-01-27T12:47:09;10.90;;;4.60;;
36377;SDS011;22402;42.746;23.606;2024-01-27T12:49:35;11.80;;;5.30;;
36377;SDS011;22402;42.746;23.606;2024-01-27T12:52:01;11.07;;;5.27;;
36377;SDS011;22402;42.746;23.606;2024-01-27T12:54:27;7.80;;;4.13;;
36377;SDS011;22402;42.746;23.606;2024-01-27T12:56:53;10.60;;;4.80;;
36377;SDS011;22402;42.746;23.606;2024-01-27T12:59:20;9.90;;;5.20;;
36377;SDS011;22402;42.746;23.606;2024-01-27T13:01:48;10.73;;;5.37;;
36377;SDS011;22402;42.746;23.606;2024-01-27T13:04:14;12.83;;;5.33;;
36377;SDS011;22402;42.746;23.606;2024-01-27T13:06:41;13.17;;;5.77;;
36377;SDS011;22402;42.746;23.606;2024-01-27T13:09:07;12.03;;;5.50;;
36377;SDS011;22402;42.746;23.606;2024-01-27T13:11:36;10.40;;;4.33;;
36377;SDS011;22402;42.746;23.606;2024-01-27T13:14:02;12.60;;;4.90;;
36377;SDS011;22402;42.746;23.606;2024-01-27T13:16:27;14.40;;;6.07;;
36377;SDS011;22402;42.746;23.606;2024-01-27T13:18:53;18.50;;;7.77;;
36377;SDS011;22402;42.746;23.606;2024-01-27T13:21:18;15.40;;;7.10;;
36377;SDS011;22402;42.746;23.606;2024-01-27T13:23:43;20.30;;;6.80;;
36377;SDS011;22402;42.746;23.606;2024-01-27T13:26:09;17.87;;;6.33;;
36377;SDS011;22402;42.746;23.606;2024-01-27T13:28:34;14.43;;;5.43;;
36377;SDS011;22402;42.746;23.606;2024-01-27T13:31:03;16.47;;;5.90;;
36377;SDS011;22402;42.746;23.606;2024-01-27T13:33:32;13.97;;;4.70;;
36377;SDS011;22402;42.746;23.606;2024-01-27T13:35:59;12.20;;;3.93;;
36377;SDS011;22402;42.746;23.606;2024-01-27T13:38:24;10.93;;;4.20;;
36377;SDS011;22402;42.746;23.606;2024-01-27T13:40:50;18.10;;;5.23;;
36377;SDS011;22402;42.746;23.606;2024-01-27T13:43:16;16.67;;;4.93;;
36377;SDS011;22402;42.746;23.606;2024-01-27T13:45:42;14.80;;;4.13;;
36377;SDS011;22402;42.746;23.606;2024-01-27T13:48:09;10.90;;;3.87;;
36377;SDS011;22402;42.746;23.606;2024-01-27T13:50:37;12.07;;;3.77;;
36377;SDS011;22402;42.746;23.606;2024-01-27T13:53:03;13.47;;;4.43;;
36377;SDS011;22402;42.746;23.606;2024-01-27T13:55:30;12.60;;;4.20;;
36377;SDS011;22402;42.746;23.606;2024-01-27T13:57:56;13.33;;;3.47;;
36377;SDS011;22402;42.746;23.606;2024-01-27T14:00:21;14.33;;;4.50;;
36377;SDS011;22402;42.746;23.606;2024-01-27T14:02:47;16.20;;;4.43;;
36377;SDS011;22402;42.746;23.606;2024-01-27T14:05:16;9.30;;;3.17;;
36377;SDS011;22402;42.746;23.606;2024-01-27T14:07:42;11.90;;;3.87;;
36377;SDS011;22402;42.746;23.606;2024-01-27T14:10:10;19.77;;;4.33;;
36377;SDS011;22402;42.746;23.606;2024-01-27T14:12:36;10.30;;;3.17;;
36377;SDS011;22402;42.746;23.606;2024-01-27T14:15:08;13.77;;;3.97;;
36377;SDS011;22402;42.746;23.606;2024-01-27T14:17:35;12.87;;;3.90;;
36377;SDS011;22402;42.746;23.606;2024-01-27T14:20:01;14.27;;;4.20;;
36377;SDS011;22402;42.746;23.606;2024-01-27T14:22:28;12.13;;;3.83;;